Sisters, OR

10:01 PM PDT on July 03, 2015 (GMT -0700)
Bradley Road, Sisters East | | Change Station
CLOSE
Current Station
Personal Weather Station
Location: Sisters, OR
Elevation: 3117 ft
Nearby Weather Stations

Elev 3117 ft 44.29 °N, 121.50 °W | Updated 5 seconds ago

Clear
Clear
77.9 °F
Feels Like 78 °F
N
7.4
Wind Variable Wind from NW
Gusts 16.0 mph

Today
High -- | Low -- °F
--% Chance of Precip.
Yesterday
High -- | Low -- °F
Precip. -- in
5:26 AM 8:53 PM
Waning Gibbous, 94% visible
Pressure 29.84 in
Visibility 10.0 miles
Clouds Clear
Heat Index 78 °F
Dew Point 45 °F
Humidity 31%
Rainfall 0.00 in
Snow Depth Not available.
UV 0 out of 12
Pollen 9.40 out of 12
Air Quality Not available.
Flu Activity Not available.
METAR KRDM 040456Z AUTO 31007KT 10SM CLR 26/07 A2995 RMK AO2 SLP105 T02610067 $

More Conditions Fewer Conditions

Pressure 29.84 in
Visibility 10.0 miles
Clouds Clear
Heat Index 78 °F
Dew Point 45 °F
Humidity 31%
Rainfall 0.00 in
Snow Depth Not available.
UV 0 out of 12
Pollen 9.40 out of 12
Air Quality Not available.
Flu Activity Not available.
METAR KRDM 040456Z AUTO 31007KT 10SM CLR 26/07 A2995 RMK AO2 SLP105 T02610067 $

More Conditions Fewer Conditions

10-Day Weather Forecast

×

Almanac

Astronomy

Jul. 03, 2015 Rise Set
Actual Time
Civil Twilight
Nautical Twilight
Astronomical Twilight
Moon
Length of Visible Light
Length of Day
Tomorrow will be .
, % of the Moon is Illuminated

Today's Extremes

State Highs State Lows

Community

WunderPhotos

Upload Photos

1,834,921 photos uploaded!

WunderBlogs® & News

Nearby

Air Quality

  Air Quality AQ Index Pollutant
Not available.

Snow Depth

Station Depth Elevation

Earthquake Activity

City Distance Mag. Time & Date
Minimum magnitude displayed is 2.5.

Coastal Water Temperatures

Place Temperature

Stations

Nearby Weather Stations

Station Location Temp. Windchill Dew Point Humidity Wind Precip. Elev Updated Type
                   
Fire Weather Warning
Statement as of 2:49 PM PDT on July 03, 2015

... Red flag warning remains in effect until 8 PM PDT Saturday for
winds and low relative humidity...

* affected areas: fire weather zone or610 east slopes of the
central Oregon Cascades... fire weather zone or640 central
mountains of Oregon... and fire weather zone 641 lower Columbia
Basin of Oregon west of Lexington and Umatilla.

* Timing... lowest relative humidity combined with stronger winds
expected to occur between 3 PM and 8 PM today and again on
Saturday.

* Wind... west to northwest wind 10 to 20 mph.

* Humidity... 8 to 15 percent

* impacts... any fires that develop will likely spread rapidly.
Outdoor burning is not recommended. Do not release fireworks
near areas of dry vegetation or flammable material.

Precautionary/preparedness actions...

A red flag warning means that critical fire weather conditions
are either occurring now... or will shortly. A combination of
strong winds... low relative humidity... and warm temperatures can
contribute to extreme fire behavior.